sensor_id;sensor_type;location;lat;lon;timestamp;pressure;altitude;pressure_sealevel;temperature;humidity
50854;BME280;44154;45.506;-122.806;2023-04-28T00:02:20;100836.16;;;26.80;35.48
50854;BME280;44154;45.506;-122.806;2023-04-28T00:04:46;100835.06;;;26.81;35.44
50854;BME280;44154;45.506;-122.806;2023-04-28T00:07:12;100819.38;;;26.72;35.13
50854;BME280;44154;45.506;-122.806;2023-04-28T00:09:38;100835.91;;;26.87;35.06
50854;BME280;44154;45.506;-122.806;2023-04-28T00:12:05;100840.81;;;26.85;34.91
50854;BME280;44154;45.506;-122.806;2023-04-28T00:14:31;100831.75;;;26.74;34.79
50854;BME280;44154;45.506;-122.806;2023-04-28T00:16:57;100837.25;;;26.79;34.57
50854;BME280;44154;45.506;-122.806;2023-04-28T00:19:24;100836.16;;;26.80;34.32
50854;BME280;44154;45.506;-122.806;2023-04-28T00:21:50;100824.88;;;26.82;34.42
50854;BME280;44154;45.506;-122.806;2023-04-28T00:24:16;100825.47;;;26.89;34.65
50854;BME280;44154;45.506;-122.806;2023-04-28T00:26:42;100831.25;;;26.93;34.38
50854;BME280;44154;45.506;-122.806;2023-04-28T00:29:09;100823.28;;;26.91;33.72
50854;BME280;44154;45.506;-122.806;2023-04-28T00:31:35;100808.41;;;26.82;33.84
50854;BME280;44154;45.506;-122.806;2023-04-28T00:34:01;100818.34;;;26.98;33.89
50854;BME280;44154;45.506;-122.806;2023-04-28T00:36:27;100808.75;;;27.01;33.89
50854;BME280;44154;45.506;-122.806;2023-04-28T00:38:57;100782.91;;;26.92;34.01
50854;BME280;44154;45.506;-122.806;2023-04-28T00:41:24;100791.72;;;26.99;33.98
50854;BME280;44154;45.506;-122.806;2023-04-28T00:43:50;100805.19;;;27.11;33.91
50854;BME280;44154;45.506;-122.806;2023-04-28T00:46:23;100805.47;;;27.14;33.74
50854;BME280;44154;45.506;-122.806;2023-04-28T00:48:51;100782.09;;;26.96;33.92
50854;BME280;44154;45.506;-122.806;2023-04-28T00:51:17;100782.38;;;27.10;33.75
50854;BME280;44154;45.506;-122.806;2023-04-28T00:53:44;100794.19;;;27.21;34.05
50854;BME280;44154;45.506;-122.806;2023-04-28T00:56:10;100790.94;;;27.24;34.22
50854;BME280;44154;45.506;-122.806;2023-04-28T00:58:37;100773.63;;;27.18;34.04
50854;BME280;44154;45.506;-122.806;2023-04-28T01:01:04;100798.06;;;27.25;34.08
50854;BME280;44154;45.506;-122.806;2023-04-28T01:03:39;100787.88;;;27.21;34.05
50854;BME280;44154;45.506;-122.806;2023-04-28T01:06:07;100795.88;;;27.27;34.50
50854;BME280;44154;45.506;-122.806;2023-04-28T01:08:35;100792.31;;;27.32;34.35
50854;BME280;44154;45.506;-122.806;2023-04-28T01:11:01;100793.16;;;27.38;33.97
50854;BME280;44154;45.506;-122.806;2023-04-28T01:13:28;100794.81;;;27.39;34.07
50854;BME280;44154;45.506;-122.806;2023-04-28T01:15:57;100784.91;;;27.43;34.02
50854;BME280;44154;45.506;-122.806;2023-04-28T01:18:24;100788.75;;;27.47;34.16
50854;BME280;44154;45.506;-122.806;2023-04-28T01:20:50;100776.66;;;27.43;34.05
50854;BME280;44154;45.506;-122.806;2023-04-28T01:23:17;100771.97;;;27.48;34.56
50854;BME280;44154;45.506;-122.806;2023-04-28T01:25:43;100739.56;;;27.30;34.51
50854;BME280;44154;45.506;-122.806;2023-04-28T01:28:10;100777.22;;;27.60;34.85
50854;BME280;44154;45.506;-122.806;2023-04-28T01:30:37;100778.84;;;27.61;35.82
50854;BME280;44154;45.506;-122.806;2023-04-28T01:33:03;100779.94;;;27.65;36.35
50854;BME280;44154;45.506;-122.806;2023-04-28T01:35:29;100775.00;;;27.67;36.67
50854;BME280;44154;45.506;-122.806;2023-04-28T01:37:55;100768.97;;;27.71;36.58
50854;BME280;44154;45.506;-122.806;2023-04-28T01:40:23;100714.84;;;27.40;36.45
50854;BME280;44154;45.506;-122.806;2023-04-28T01:42:49;100772.25;;;27.67;36.46
50854;BME280;44154;45.506;-122.806;2023-04-28T01:45:15;100768.97;;;27.71;36.50
50854;BME280;44154;45.506;-122.806;2023-04-28T01:47:42;100767.59;;;27.73;36.70
50854;BME280;44154;45.506;-122.806;2023-04-28T01:50:08;100750.00;;;27.69;35.91
50854;BME280;44154;45.506;-122.806;2023-04-28T01:52:34;100742.56;;;27.69;36.50
50854;BME280;44154;45.506;-122.806;2023-04-28T01:55:00;100764.00;;;27.78;36.36
50854;BME280;44154;45.506;-122.806;2023-04-28T01:57:27;100762.91;;;27.79;35.68
50854;BME280;44154;45.506;-122.806;2023-04-28T01:59:54;100763.44;;;27.81;35.59
50854;BME280;44154;45.506;-122.806;2023-04-28T02:02:20;100757.38;;;27.84;35.91
50854;BME280;44154;45.506;-122.806;2023-04-28T02:04:46;100761.50;;;27.86;36.00
50854;BME280;44154;45.506;-122.806;2023-04-28T02:07:12;100765.06;;;27.92;36.54
50854;BME280;44154;45.506;-122.806;2023-04-28T02:09:38;100754.06;;;27.87;36.25
50854;BME280;44154;45.506;-122.806;2023-04-28T02:12:05;100761.22;;;27.83;36.96
50854;BME280;44154;45.506;-122.806;2023-04-28T02:14:31;100701.38;;;27.39;36.69
50854;BME280;44154;45.506;-122.806;2023-04-28T02:17:00;100746.94;;;27.81;36.86
50854;BME280;44154;45.506;-122.806;2023-04-28T02:19:27;100757.91;;;27.91;37.12
50854;BME280;44154;45.506;-122.806;2023-04-28T02:21:54;100761.22;;;27.93;37.75
50854;BME280;44154;45.506;-122.806;2023-04-28T02:24:20;100766.16;;;27.96;36.68
50854;BME280;44154;45.506;-122.806;2023-04-28T02:26:48;100757.91;;;28.01;36.77
50854;BME280;44154;45.506;-122.806;2023-04-28T02:29:14;100712.06;;;27.66;37.13
50854;BME280;44154;45.506;-122.806;2023-04-28T02:31:40;100761.22;;;28.03;36.85
50854;BME280;44154;45.506;-122.806;2023-04-28T02:34:06;100762.03;;;27.94;37.36
50854;BME280;44154;45.506;-122.806;2023-04-28T02:36:32;100757.38;;;27.89;38.25
50854;BME280;44154;45.506;-122.806;2023-04-28T02:38:59;100752.13;;;27.93;38.03
50854;BME280;44154;45.506;-122.806;2023-04-28T02:41:25;100763.13;;;28.03;37.40
50854;BME280;44154;45.506;-122.806;2023-04-28T02:43:51;100756.25;;;27.95;37.68
50854;BME280;44154;45.506;-122.806;2023-04-28T02:46:17;100765.88;;;27.93;38.41
50854;BME280;44154;45.506;-122.806;2023-04-28T02:48:43;100765.63;;;27.99;37.19
50854;BME280;44154;45.506;-122.806;2023-04-28T02:51:10;100757.34;;;27.94;37.36
50854;BME280;44154;45.506;-122.806;2023-04-28T02:53:36;100765.06;;;28.02;36.99
50854;BME280;44154;45.506;-122.806;2023-04-28T02:56:02;100762.31;;;28.08;37.40
50854;BME280;44154;45.506;-122.806;2023-04-28T02:58:29;100734.84;;;27.77;38.26
50854;BME280;44154;45.506;-122.806;2023-04-28T03:00:55;100732.63;;;27.89;38.32
50854;BME280;44154;45.506;-122.806;2023-04-28T03:03:22;100751.31;;;28.08;38.12
50854;BME280;44154;45.506;-122.806;2023-04-28T03:05:48;100754.31;;;28.11;37.01
50854;BME280;44154;45.506;-122.806;2023-04-28T03:08:14;100754.59;;;28.10;37.07
50854;BME280;44154;45.506;-122.806;2023-04-28T03:10:40;100719.16;;;27.88;36.05
50854;BME280;44154;45.506;-122.806;2023-04-28T03:13:06;100758.72;;;28.12;36.59
50854;BME280;44154;45.506;-122.806;2023-04-28T03:15:32;100752.38;;;28.12;36.31
50854;BME280;44154;45.506;-122.806;2023-04-28T03:17:59;100764.53;;;28.00;36.23
50854;BME280;44154;45.506;-122.806;2023-04-28T03:20:26;100740.63;;;27.80;36.03
50854;BME280;44154;45.506;-122.806;2023-04-28T03:22:52;100762.03;;;28.04;36.28
50854;BME280;44154;45.506;-122.806;2023-04-28T03:25:18;100767.78;;;28.13;36.39
50854;BME280;44154;45.506;-122.806;2023-04-28T03:27:45;100763.38;;;28.12;36.24
50854;BME280;44154;45.506;-122.806;2023-04-28T03:30:11;100777.16;;;28.07;35.86
50854;BME280;44154;45.506;-122.806;2023-04-28T03:32:37;100777.16;;;28.07;36.06
50854;BME280;44154;45.506;-122.806;2023-04-28T03:35:04;100767.25;;;28.11;35.77
50854;BME280;44154;45.506;-122.806;2023-04-28T03:37:30;100774.38;;;28.17;35.91
50854;BME280;44154;45.506;-122.806;2023-04-28T03:39:56;100778.22;;;28.21;35.89
50854;BME280;44154;45.506;-122.806;2023-04-28T03:42:22;100773.28;;;28.18;35.91
50854;BME280;44154;45.506;-122.806;2023-04-28T03:44:49;100767.25;;;28.11;35.99
50854;BME280;44154;45.506;-122.806;2023-04-28T03:47:15;100774.91;;;28.19;35.96
50854;BME280;44154;45.506;-122.806;2023-04-28T03:49:41;100785.63;;;28.26;35.91
50854;BME280;44154;45.506;-122.806;2023-04-28T03:52:07;100783.16;;;28.24;35.75
50854;BME280;44154;45.506;-122.806;2023-04-28T03:54:33;100787.56;;;28.25;36.18
50854;BME280;44154;45.506;-122.806;2023-04-28T03:56:59;100807.91;;;28.29;36.28
50854;BME280;44154;45.506;-122.806;2023-04-28T03:59:26;100798.53;;;28.35;36.07
50854;BME280;44154;45.506;-122.806;2023-04-28T04:01:52;100787.00;;;28.23;35.85
50854;BME280;44154;45.506;-122.806;2023-04-28T04:04:19;100783.69;;;28.31;36.16
50854;BME280;44154;45.506;-122.806;2023-04-28T04:06:45;100765.03;;;28.18;35.83
50854;BME280;44154;45.506;-122.806;2023-04-28T04:09:11;100770.50;;;28.23;35.97
50854;BME280;44154;45.506;-122.806;2023-04-28T04:11:37;100794.94;;;28.40;35.76
50854;BME280;44154;45.506;-122.806;2023-04-28T04:14:04;100771.00;;;28.30;36.22
50854;BME280;44154;45.506;-122.806;2023-04-28T04:16:30;100791.03;;;28.46;35.88
50854;BME280;44154;45.506;-122.806;2023-04-28T04:18:57;100773.19;;;28.33;35.97
50854;BME280;44154;45.506;-122.806;2023-04-28T04:21:23;100792.69;;;28.47;35.49
50854;BME280;44154;45.506;-122.806;2023-04-28T04:23:49;100791.88;;;28.47;35.86
50854;BME280;44154;45.506;-122.806;2023-04-28T04:26:15;100791.88;;;28.47;35.25
50854;BME280;44154;45.506;-122.806;2023-04-28T04:28:42;100770.72;;;28.32;35.21
50854;BME280;44154;45.506;-122.806;2023-04-28T04:31:08;100784.72;;;28.41;34.98
50854;BME280;44154;45.506;-122.806;2023-04-28T04:33:34;100795.72;;;28.51;35.13
50854;BME280;44154;45.506;-122.806;2023-04-28T04:36:02;100797.34;;;28.52;35.07
50854;BME280;44154;45.506;-122.806;2023-04-28T04:38:29;100796.25;;;28.53;34.92
50854;BME280;44154;45.506;-122.806;2023-04-28T04:40:56;100792.97;;;28.51;35.25
50854;BME280;44154;45.506;-122.806;2023-04-28T04:43:22;100799.56;;;28.50;35.33
50854;BME280;44154;45.506;-122.806;2023-04-28T04:45:48;100800.66;;;28.49;35.39
50854;BME280;44154;45.506;-122.806;2023-04-28T04:48:14;100799.00;;;28.48;35.43
50854;BME280;44154;45.506;-122.806;2023-04-28T04:50:41;100791.88;;;28.42;34.70
50854;BME280;44154;45.506;-122.806;2023-04-28T04:53:08;100794.06;;;28.45;34.76
50854;BME280;44154;45.506;-122.806;2023-04-28T04:55:34;100746.31;;;28.15;34.67
50854;BME280;44154;45.506;-122.806;2023-04-28T04:58:00;100797.66;;;28.45;34.76
50854;BME280;44154;45.506;-122.806;2023-04-28T05:00:27;100789.41;;;28.45;34.74
50854;BME280;44154;45.506;-122.806;2023-04-28T05:02:53;100784.75;;;28.35;34.51
50854;BME280;44154;45.506;-122.806;2023-04-28T05:05:20;100780.91;;;28.36;34.43
50854;BME280;44154;45.506;-122.806;2023-04-28T05:07:46;100792.44;;;28.44;34.00
50854;BME280;44154;45.506;-122.806;2023-04-28T05:10:12;100786.38;;;28.42;34.31
50854;BME280;44154;45.506;-122.806;2023-04-28T05:12:38;100764.97;;;28.28;34.57
50854;BME280;44154;45.506;-122.806;2023-04-28T05:15:05;100781.44;;;28.38;34.37
50854;BME280;44154;45.506;-122.806;2023-04-28T05:17:33;100783.94;;;28.35;34.60
50854;BME280;44154;45.506;-122.806;2023-04-28T05:19:59;100777.34;;;28.31;34.35
50854;BME280;44154;45.506;-122.806;2023-04-28T05:22:25;100782.31;;;28.29;34.29
50854;BME280;44154;45.506;-122.806;2023-04-28T05:24:51;100762.28;;;28.18;34.29
50854;BME280;44154;45.506;-122.806;2023-04-28T05:27:18;100775.47;;;28.21;34.18
50854;BME280;44154;45.506;-122.806;2023-04-28T05:29:44;100773.00;;;28.19;34.41
50854;BME280;44154;45.506;-122.806;2023-04-28T05:32:10;100771.63;;;28.12;34.06
50854;BME280;44154;45.506;-122.806;2023-04-28T05:34:37;100750.47;;;27.97;34.21
50854;BME280;44154;45.506;-122.806;2023-04-28T05:37:03;100771.63;;;28.12;34.28
50854;BME280;44154;45.506;-122.806;2023-04-28T05:39:29;100774.38;;;28.12;34.51
50854;BME280;44154;45.506;-122.806;2023-04-28T05:41:55;100771.09;;;28.10;34.50
50854;BME280;44154;45.506;-122.806;2023-04-28T05:44:23;100774.66;;;28.10;34.40
50854;BME280;44154;45.506;-122.806;2023-04-28T05:46:49;100771.13;;;27.99;34.28
50854;BME280;44154;45.506;-122.806;2023-04-28T05:49:16;100772.22;;;27.88;33.85
50854;BME280;44154;45.506;-122.806;2023-04-28T05:51:42;100756.59;;;27.52;34.69
50854;BME280;44154;45.506;-122.806;2023-04-28T05:54:09;100774.44;;;27.71;34.65
50854;BME280;44154;45.506;-122.806;2023-04-28T05:56:35;100767.03;;;27.71;34.48
50854;BME280;44154;45.506;-122.806;2023-04-28T05:59:02;100714.28;;;27.43;34.79
50854;BME280;44154;45.506;-122.806;2023-04-28T06:01:30;100765.66;;;27.79;34.72
50854;BME280;44154;45.506;-122.806;2023-04-28T06:03:56;100777.72;;;27.83;34.71
50854;BME280;44154;45.506;-122.806;2023-04-28T06:06:24;100760.16;;;27.79;34.70
50854;BME280;44154;45.506;-122.806;2023-04-28T06:08:50;100755.19;;;27.76;34.77
50854;BME280;44154;45.506;-122.806;2023-04-28T06:11:16;100764.81;;;27.83;34.34
50854;BME280;44154;45.506;-122.806;2023-04-28T06:13:47;100767.56;;;27.83;34.59
50854;BME280;44154;45.506;-122.806;2023-04-28T06:16:15;100765.09;;;27.82;34.46
50854;BME280;44154;45.506;-122.806;2023-04-28T06:18:41;100771.41;;;27.82;34.12
50854;BME280;44154;45.506;-122.806;2023-04-28T06:21:08;100752.47;;;27.71;34.11
50854;BME280;44154;45.506;-122.806;2023-04-28T06:23:34;100751.91;;;27.74;34.46
50854;BME280;44154;45.506;-122.806;2023-04-28T06:26:00;100750.78;;;27.80;34.09
50854;BME280;44154;45.506;-122.806;2023-04-28T06:28:27;100700.50;;;27.48;34.34
50854;BME280;44154;45.506;-122.806;2023-04-28T06:30:53;100747.50;;;27.73;34.07
50854;BME280;44154;45.506;-122.806;2023-04-28T06:33:19;100740.91;;;27.68;34.55
50854;BME280;44154;45.506;-122.806;2023-04-28T06:35:45;100745.03;;;27.66;34.58
50854;BME280;44154;45.506;-122.806;2023-04-28T06:38:11;100732.94;;;27.62;34.48
50854;BME280;44154;45.506;-122.806;2023-04-28T06:40:38;100742.56;;;27.69;34.22
50854;BME280;44154;45.506;-122.806;2023-04-28T06:43:05;100740.38;;;27.66;34.06
50854;BME280;44154;45.506;-122.806;2023-04-28T06:45:31;100742.28;;;27.61;34.54
50854;BME280;44154;45.506;-122.806;2023-04-28T06:47:57;100711.81;;;27.42;34.28
50854;BME280;44154;45.506;-122.806;2023-04-28T06:50:24;100729.94;;;27.48;34.43
50854;BME280;44154;45.506;-122.806;2023-04-28T06:52:50;100720.06;;;27.37;34.14
50854;BME280;44154;45.506;-122.806;2023-04-28T06:55:16;100745.88;;;27.51;34.19
50854;BME280;44154;45.506;-122.806;2023-04-28T06:57:43;100740.66;;;27.49;34.13
50854;BME280;44154;45.506;-122.806;2023-04-28T07:00:10;100721.16;;;27.41;34.39
50854;BME280;44154;45.506;-122.806;2023-04-28T07:02:37;100732.16;;;27.41;34.00
50854;BME280;44154;45.506;-122.806;2023-04-28T07:05:03;100740.69;;;27.44;34.30
50854;BME280;44154;45.506;-122.806;2023-04-28T07:07:30;100729.94;;;27.38;34.01
50854;BME280;44154;45.506;-122.806;2023-04-28T07:09:56;100745.34;;;27.49;34.08
50854;BME280;44154;45.506;-122.806;2023-04-28T07:12:23;100729.41;;;27.41;34.24
50854;BME280;44154;45.506;-122.806;2023-04-28T07:14:49;100740.41;;;27.46;34.03
50854;BME280;44154;45.506;-122.806;2023-04-28T07:17:16;100738.19;;;27.38;34.04
50854;BME280;44154;45.506;-122.806;2023-04-28T07:19:42;100744.50;;;27.43;34.18
50854;BME280;44154;45.506;-122.806;2023-04-28T07:22:08;100742.03;;;27.47;34.22
50854;BME280;44154;45.506;-122.806;2023-04-28T07:24:35;100744.50;;;27.48;34.10
50854;BME280;44154;45.506;-122.806;2023-04-28T07:27:02;100727.47;;;27.46;34.05
50854;BME280;44154;45.506;-122.806;2023-04-28T07:29:28;100747.53;;;27.52;33.80
50854;BME280;44154;45.506;-122.806;2023-04-28T07:31:59;100751.38;;;27.51;33.67
50854;BME280;44154;45.506;-122.806;2023-04-28T07:34:26;100749.72;;;27.50;33.71
50854;BME280;44154;45.506;-122.806;2023-04-28T07:36:53;100743.44;;;27.44;33.79
50854;BME280;44154;45.506;-122.806;2023-04-28T07:39:19;100735.97;;;27.50;33.72
50854;BME280;44154;45.506;-122.806;2023-04-28T07:41:46;100750.28;;;27.47;33.45
50854;BME280;44154;45.506;-122.806;2023-04-28T07:44:12;100743.97;;;27.46;33.53
50854;BME280;44154;45.506;-122.806;2023-04-28T07:46:38;100743.97;;;27.46;33.70
50854;BME280;44154;45.506;-122.806;2023-04-28T07:49:05;100740.41;;;27.46;33.96
50854;BME280;44154;45.506;-122.806;2023-04-28T07:51:33;100750.28;;;27.42;33.70
50854;BME280;44154;45.506;-122.806;2023-04-28T07:53:59;100718.94;;;27.22;33.68
50854;BME280;44154;45.506;-122.806;2023-04-28T07:56:25;100726.63;;;27.25;33.79
50854;BME280;44154;45.506;-122.806;2023-04-28T07:58:52;100721.69;;;27.22;33.61
50854;BME280;44154;45.506;-122.806;2023-04-28T08:01:18;100737.34;;;27.32;33.80
50854;BME280;44154;45.506;-122.806;2023-04-28T08:03:44;100720.59;;;27.23;33.66
50854;BME280;44154;45.506;-122.806;2023-04-28T08:06:11;100736.53;;;27.31;33.83
50854;BME280;44154;45.506;-122.806;2023-04-28T08:08:38;100737.34;;;27.32;34.03
50854;BME280;44154;45.506;-122.806;2023-04-28T08:11:05;100728.28;;;27.31;33.59
50854;BME280;44154;45.506;-122.806;2023-04-28T08:13:32;100701.34;;;27.18;34.14
50854;BME280;44154;45.506;-122.806;2023-04-28T08:15:58;100719.47;;;27.29;34.05
50854;BME280;44154;45.506;-122.806;2023-04-28T08:18:28;100713.19;;;27.18;33.84
50854;BME280;44154;45.506;-122.806;2023-04-28T08:20:54;100721.69;;;27.22;33.52
50854;BME280;44154;45.506;-122.806;2023-04-28T08:23:20;100734.31;;;27.13;34.04
50854;BME280;44154;45.506;-122.806;2023-04-28T08:25:48;100721.13;;;27.05;34.07
50854;BME280;44154;45.506;-122.806;2023-04-28T08:28:15;100709.06;;;26.95;34.21
50854;BME280;44154;45.506;-122.806;2023-04-28T08:30:41;100717.81;;;26.97;33.97
50854;BME280;44154;45.506;-122.806;2023-04-28T08:33:07;100718.63;;;26.98;34.42
50854;BME280;44154;45.506;-122.806;2023-04-28T08:35:33;100711.50;;;26.92;34.56
50854;BME280;44154;45.506;-122.806;2023-04-28T08:38:00;100720.31;;;26.94;34.00
50854;BME280;44154;45.506;-122.806;2023-04-28T08:40:26;100715.06;;;26.92;34.35
50854;BME280;44154;45.506;-122.806;2023-04-28T08:42:54;100718.09;;;26.91;34.15
50854;BME280;44154;45.506;-122.806;2023-04-28T08:45:23;100714.50;;;26.85;34.15
50854;BME280;44154;45.506;-122.806;2023-04-28T08:47:50;100712.31;;;26.82;34.25
50854;BME280;44154;45.506;-122.806;2023-04-28T08:50:20;100711.78;;;26.80;34.27
50854;BME280;44154;45.506;-122.806;2023-04-28T08:52:51;100687.06;;;26.70;34.97
50854;BME280;44154;45.506;-122.806;2023-04-28T08:55:18;100699.88;;;26.59;34.96
50854;BME280;44154;45.506;-122.806;2023-04-28T08:57:47;100715.59;;;26.69;34.18
50854;BME280;44154;45.506;-122.806;2023-04-28T09:00:14;100693.00;;;26.56;34.48
50854;BME280;44154;45.506;-122.806;2023-04-28T09:02:41;100703.53;;;26.70;34.82
50854;BME280;44154;45.506;-122.806;2023-04-28T09:05:11;100707.91;;;26.71;36.62
50854;BME280;44154;45.506;-122.806;2023-04-28T09:07:39;100698.88;;;26.75;35.64
50854;BME280;44154;45.506;-122.806;2023-04-28T09:10:16;100702.97;;;26.78;35.63
50854;BME280;44154;45.506;-122.806;2023-04-28T09:12:46;100684.25;;;26.64;35.49
50854;BME280;44154;45.506;-122.806;2023-04-28T09:15:32;100689.47;;;26.66;35.71
50854;BME280;44154;45.506;-122.806;2023-04-28T09:18:05;100687.28;;;26.63;35.30
50854;BME280;44154;45.506;-122.806;2023-04-28T09:20:34;100691.38;;;26.55;35.17
50854;BME280;44154;45.506;-122.806;2023-04-28T09:23:20;100684.78;;;26.51;35.31
50854;BME280;44154;45.506;-122.806;2023-04-28T09:26:01;100679.84;;;26.53;35.41
50854;BME280;44154;45.506;-122.806;2023-04-28T09:28:28;100663.91;;;26.50;35.63
50854;BME280;44154;45.506;-122.806;2023-04-28T09:30:55;100641.69;;;26.36;35.95
50854;BME280;44154;45.506;-122.806;2023-04-28T09:33:22;100672.19;;;26.55;36.08
50854;BME280;44154;45.506;-122.806;2023-04-28T09:35:48;100666.66;;;26.50;36.48
50854;BME280;44154;45.506;-122.806;2023-04-28T09:38:15;100666.94;;;26.48;36.41
50854;BME280;44154;45.506;-122.806;2023-04-28T09:41:01;100657.28;;;26.36;35.83
50854;BME280;44154;45.506;-122.806;2023-04-28T09:43:29;100650.97;;;26.30;36.13
50854;BME280;44154;45.506;-122.806;2023-04-28T09:45:59;100671.03;;;26.41;35.86
50854;BME280;44154;45.506;-122.806;2023-04-28T09:48:33;100669.34;;;26.35;35.94
50854;BME280;44154;45.506;-122.806;2023-04-28T09:51:04;100669.63;;;26.33;36.28
50854;BME280;44154;45.506;-122.806;2023-04-28T09:53:31;100658.38;;;26.24;36.05
50854;BME280;44154;45.506;-122.806;2023-04-28T09:55:59;100672.38;;;26.33;36.66
50854;BME280;44154;45.506;-122.806;2023-04-28T09:58:27;100665.00;;;26.34;36.38
50854;BME280;44154;45.506;-122.806;2023-04-28T10:00:56;100668.28;;;26.36;36.65
50854;BME280;44154;45.506;-122.806;2023-04-28T10:03:27;100655.66;;;26.29;36.54
50854;BME280;44154;45.506;-122.806;2023-04-28T10:05:53;100663.56;;;26.26;36.56
50854;BME280;44154;45.506;-122.806;2023-04-28T10:08:21;100664.97;;;26.23;36.08
50854;BME280;44154;45.506;-122.806;2023-04-28T10:10:49;100654.78;;;26.19;35.99
50854;BME280;44154;45.506;-122.806;2023-04-28T10:13:20;100663.28;;;26.17;35.93
50854;BME280;44154;45.506;-122.806;2023-04-28T10:15:48;100654.78;;;26.13;35.99
50854;BME280;44154;45.506;-122.806;2023-04-28T10:18:15;100649.56;;;26.12;36.07
50854;BME280;44154;45.506;-122.806;2023-04-28T10:20:47;100646.81;;;26.12;35.89
50854;BME280;44154;45.506;-122.806;2023-04-28T10:26:11;100626.50;;;26.08;36.59
50854;BME280;44154;45.506;-122.806;2023-04-28T10:28:49;100636.94;;;26.11;36.57
50854;BME280;44154;45.506;-122.806;2023-04-28T10:31:17;100628.69;;;26.01;36.22
50854;BME280;44154;45.506;-122.806;2023-04-28T10:33:45;100638.28;;;26.03;36.02
50854;BME280;44154;45.506;-122.806;2023-04-28T10:36:47;100646.78;;;26.02;35.86
50854;BME280;44154;45.506;-122.806;2023-04-28T10:39:15;100646.72;;;25.96;36.25
50854;BME280;44154;45.506;-122.806;2023-04-28T10:41:42;100636.25;;;25.88;36.28
50854;BME280;44154;45.506;-122.806;2023-04-28T10:47:04;100635.09;;;25.74;36.75
50854;BME280;44154;45.506;-122.806;2023-04-28T11:00:48;100645.78;;;25.70;38.09
50854;BME280;44154;45.506;-122.806;2023-04-28T11:03:45;100650.44;;;25.70;37.67
50854;BME280;44154;45.506;-122.806;2023-04-28T11:06:23;100639.41;;;25.59;38.33
50854;BME280;44154;45.506;-122.806;2023-04-28T11:09:00;100640.53;;;25.63;38.46
50854;BME280;44154;45.506;-122.806;2023-04-28T11:11:31;100633.66;;;25.56;38.70
50854;BME280;44154;45.506;-122.806;2023-04-28T11:16:56;100640.81;;;25.62;37.69
50854;BME280;44154;45.506;-122.806;2023-04-28T11:22:25;100634.78;;;25.60;38.17
50854;BME280;44154;45.506;-122.806;2023-04-28T11:24:59;100630.66;;;25.57;38.46
50854;BME280;44154;45.506;-122.806;2023-04-28T11:27:30;100622.38;;;25.52;38.44
50854;BME280;44154;45.506;-122.806;2023-04-28T11:29:57;100627.59;;;25.49;37.97
50854;BME280;44154;45.506;-122.806;2023-04-28T11:32:30;100624.00;;;25.48;38.49
50854;BME280;44154;45.506;-122.806;2023-04-28T11:34:56;100618.78;;;25.41;38.18
50854;BME280;44154;45.506;-122.806;2023-04-28T11:37:22;100614.94;;;25.42;38.67
50854;BME280;44154;45.506;-122.806;2023-04-28T11:39:49;100611.66;;;25.40;38.99
50854;BME280;44154;45.506;-122.806;2023-04-28T11:42:15;100613.56;;;25.40;37.83
50854;BME280;44154;45.506;-122.806;2023-04-28T11:44:52;100621.81;;;25.45;37.89
50854;BME280;44154;45.506;-122.806;2023-04-28T11:47:29;100580.84;;;25.23;37.85
50854;BME280;44154;45.506;-122.806;2023-04-28T11:49:56;100603.97;;;25.37;37.63
50854;BME280;44154;45.506;-122.806;2023-04-28T11:52:22;100596.81;;;25.31;38.17
50854;BME280;44154;45.506;-122.806;2023-04-28T11:54:56;100596.81;;;25.31;37.99
50854;BME280;44154;45.506;-122.806;2023-04-28T11:57:24;100591.81;;;25.28;38.26
50854;BME280;44154;45.506;-122.806;2023-04-28T11:59:51;100591.47;;;25.19;38.50
50854;BME280;44154;45.506;-122.806;2023-04-28T12:02:27;100600.28;;;25.21;39.01
50854;BME280;44154;45.506;-122.806;2023-04-28T12:05:05;100593.41;;;25.19;38.51
50854;BME280;44154;45.506;-122.806;2023-04-28T12:07:43;100590.66;;;25.19;38.83
50854;BME280;44154;45.506;-122.806;2023-04-28T12:10:14;100587.38;;;25.17;38.23
50854;BME280;44154;45.506;-122.806;2023-04-28T12:12:41;100598.34;;;25.17;37.64
50854;BME280;44154;45.506;-122.806;2023-04-28T12:15:08;100588.13;;;25.07;38.65
50854;BME280;44154;45.506;-122.806;2023-04-28T12:17:36;100566.94;;;24.92;38.27
50854;BME280;44154;45.506;-122.806;2023-04-28T12:20:11;100579.84;;;24.97;38.27
50854;BME280;44154;45.506;-122.806;2023-04-28T12:22:57;100591.13;;;25.05;38.38
50854;BME280;44154;45.506;-122.806;2023-04-28T12:25:23;100584.25;;;25.03;38.87
50854;BME280;44154;45.506;-122.806;2023-04-28T12:28:06;100591.09;;;25.00;38.82
50854;BME280;44154;45.506;-122.806;2023-04-28T12:30:34;100587.53;;;25.00;38.35
50854;BME280;44154;45.506;-122.806;2023-04-28T12:33:03;100580.94;;;24.96;38.71
50854;BME280;44154;45.506;-122.806;2023-04-28T12:35:29;100580.41;;;24.99;39.00
50854;BME280;44154;45.506;-122.806;2023-04-28T12:37:56;100565.47;;;24.79;39.25
50854;BME280;44154;45.506;-122.806;2023-04-28T12:40:23;100563.25;;;24.76;39.06
50854;BME280;44154;45.506;-122.806;2023-04-28T12:42:49;100588.00;;;24.91;38.64
50854;BME280;44154;45.506;-122.806;2023-04-28T12:45:16;100558.84;;;24.70;39.30
50854;BME280;44154;45.506;-122.806;2023-04-28T12:47:42;100568.72;;;24.71;38.82